createdAt,value
2022-08-05T00:01:20.873Z,100438.81
2022-08-05T00:04:55.555Z,100385.28
2022-08-05T00:08:00.397Z,100436.84
2022-08-05T00:11:20.358Z,100445.50
2022-08-05T00:14:45.215Z,100440.66
2022-08-05T00:17:53.307Z,100431.13
2022-08-05T00:20:55.179Z,100453.16
2022-08-05T00:27:56.176Z,100422.94
2022-08-05T00:30:58.186Z,100427.28
2022-08-05T00:35:05.197Z,100443.13
2022-08-05T00:38:06.393Z,100448.62
2022-08-05T00:41:12.955Z,100429.41
2022-08-05T00:44:53.468Z,100398.72
2022-08-05T00:47:57.693Z,100439.78
2022-08-05T00:51:50.639Z,100446.50
2022-08-05T00:54:47.445Z,100329.44
2022-08-05T00:57:58.690Z,100413.78
2022-08-05T01:01:00.818Z,100429.09
2022-08-05T01:04:45.742Z,100436.59
2022-08-05T01:08:41.080Z,100437.97
2022-08-05T01:11:22.417Z,100409.84
2022-08-05T01:14:50.167Z,100434.16
2022-08-05T01:18:04.968Z,100431.69
2022-08-05T01:21:23.193Z,100433.28
2022-08-05T01:24:58.394Z,100432.06
2022-08-05T01:28:15.783Z,100413.28
2022-08-05T01:31:32.930Z,100409.22
2022-08-05T01:35:00.774Z,100426.72
2022-08-05T01:38:04.234Z,100429.44
2022-08-05T01:41:09.763Z,100436.22
2022-08-05T01:44:45.684Z,100431.88
2022-08-05T01:47:59.059Z,100437.81
2022-08-05T01:51:12.509Z,100425.00
2022-08-05T01:54:52.034Z,100421.50
2022-08-05T01:58:29.207Z,100441.53
2022-08-05T02:01:24.532Z,100423.63
2022-08-05T02:04:49.718Z,100435.94
2022-08-05T02:07:56.272Z,100429.75
2022-08-05T02:11:08.135Z,100440.22
2022-08-05T02:14:51.088Z,100442.69
2022-08-05T02:18:33.297Z,100415.03
2022-08-05T02:21:30.476Z,100443.03
2022-08-05T02:24:53.139Z,100428.72
2022-08-05T02:27:59.482Z,100441.75
2022-08-05T02:31:14.459Z,100431.88
2022-08-05T02:35:13.597Z,100331.66
2022-08-05T02:38:19.500Z,100410.91
2022-08-05T02:41:29.003Z,100427.09
2022-08-05T02:44:50.738Z,100435.84
2022-08-05T02:48:07.591Z,100427.19
2022-08-05T02:51:15.934Z,100440.13
2022-08-05T02:54:52.122Z,100331.50
2022-08-05T02:58:10.467Z,100443.69
2022-08-05T03:01:23.037Z,100428.06
2022-08-05T03:04:53.341Z,100432.22
2022-08-05T03:08:00.647Z,100429.00
2022-08-05T03:11:56.586Z,100427.06
2022-08-05T03:14:45.663Z,100349.97
2022-08-05T03:17:47.877Z,100385.31
2022-08-05T03:20:58.242Z,100418.41
2022-08-05T03:27:59.924Z,100425.12
2022-08-05T03:31:03.321Z,100309.09
2022-08-05T03:34:50.996Z,100415.28
2022-08-05T03:37:58.098Z,100426.87
2022-08-05T03:41:03.957Z,100420.06
2022-08-05T03:47:47.014Z,100423.28
2022-08-05T03:50:59.147Z,100415.00
2022-08-05T03:58:28.837Z,100435.22
2022-08-05T04:01:37.868Z,100425.12
2022-08-05T04:04:49.682Z,100417.88
2022-08-05T04:07:58.378Z,100427.19
2022-08-05T04:11:10.114Z,100263.34
2022-08-05T04:14:45.407Z,100427.69
2022-08-05T04:17:56.648Z,100426.87
2022-08-05T04:21:07.071Z,100435.41
2022-08-05T04:27:57.404Z,100431.09
2022-08-05T04:31:08.275Z,100328.28
2022-08-05T04:34:47.346Z,100282.03
2022-08-05T04:38:02.710Z,100420.22
2022-08-05T04:41:10.924Z,100428.78
2022-08-05T04:45:01.048Z,100431.03
2022-08-05T04:48:18.372Z,100359.31
2022-08-05T04:59:51.234Z,100421.69
2022-08-05T05:03:20.390Z,100410.34
2022-08-05T05:06:44.529Z,100427.97
2022-08-05T05:30:04.652Z,100421.91
2022-08-05T05:37:37.259Z,100429.12
2022-08-05T05:40:57.557Z,100368.38
2022-08-05T05:48:06.247Z,100425.31
2022-08-05T05:51:15.482Z,100422.31
2022-08-05T05:54:50.144Z,100414.75
2022-08-05T05:57:53.874Z,100283.78
2022-08-05T06:01:12.714Z,100309.06
2022-08-05T06:04:52.842Z,100275.88
2022-08-05T06:08:01.352Z,100397.31
2022-08-05T06:11:06.530Z,100302.41
2022-08-05T06:15:05.076Z,100276.47
2022-08-05T06:18:39.359Z,100413.75
2022-08-05T06:21:49.687Z,100412.06
2022-08-05T06:31:46.868Z,100415.34
2022-08-05T06:38:47.006Z,100393.50
2022-08-05T06:42:10.816Z,100390.34
2022-08-05T06:48:37.163Z,100399.06
2022-08-05T06:50:01.148Z,100387.31
2022-08-05T06:58:02.949Z,100407.44
2022-08-05T07:12:12.229Z,100406.53
2022-08-05T07:15:34.640Z,100393.63
2022-08-05T07:27:02.810Z,100402.63
2022-08-05T07:30:24.622Z,100387.00
2022-08-05T07:37:37.555Z,100396.91
2022-08-05T07:42:07.098Z,100379.13
2022-08-05T07:45:56.497Z,100372.44
2022-08-05T07:49:01.422Z,100389.69
2022-08-05T07:52:14.929Z,100380.22
2022-08-05T07:55:44.345Z,100368.63
2022-08-05T07:59:38.981Z,100388.41
2022-08-05T08:03:15.109Z,100369.13
2022-08-05T08:06:42.296Z,100377.19
2022-08-05T08:10:22.507Z,100380.72
2022-08-05T09:05:17.835Z,100369.09
2022-08-05T09:07:29.216Z,100368.84
2022-08-05T09:38:12.713Z,100337.19
2022-08-05T09:42:07.716Z,100335.69
2022-08-05T09:46:07.311Z,100309.47
2022-08-05T09:57:39.525Z,100328.72
2022-08-05T10:08:55.302Z,100184.31
2022-08-05T10:17:00.604Z,100295.31
2022-08-05T10:25:29.622Z,100301.09
2022-08-05T10:32:55.422Z,100294.69
2022-08-05T10:36:19.039Z,100265.72
2022-08-05T10:40:03.749Z,100260.16
2022-08-05T10:47:39.604Z,100268.88
2022-08-05T10:51:21.759Z,100118.84
2022-08-05T10:55:05.451Z,100145.87
2022-08-05T11:00:03.611Z,100270.59
2022-08-05T11:02:38.282Z,100133.16
2022-08-05T11:06:34.790Z,100265.03
2022-08-05T11:10:04.142Z,100238.38
2022-08-05T11:17:57.210Z,100249.22
2022-08-05T11:21:48.785Z,100111.44
2022-08-05T11:26:04.107Z,100222.84
2022-08-05T11:32:40.504Z,100144.44
2022-08-05T11:36:07.003Z,100229.66
2022-08-05T11:39:48.191Z,100166.81
2022-08-05T11:43:02.386Z,100141.87
2022-08-05T11:47:09.841Z,100240.31
2022-08-05T11:50:40.701Z,100237.72
2022-08-05T12:02:00.828Z,100237.56
2022-08-05T12:08:52.674Z,100229.91
2022-08-05T12:11:55.185Z,100088.41
2022-08-05T12:15:05.719Z,100243.09
2022-08-05T12:18:30.914Z,100221.28
2022-08-05T12:21:50.245Z,100126.78
2022-08-05T12:28:39.283Z,100221.78
2022-08-05T12:32:02.035Z,100225.62
2022-08-05T12:35:39.495Z,100209.44
2022-08-05T12:39:16.469Z,100206.66
2022-08-05T12:42:53.918Z,100211.56
2022-08-05T12:50:03.389Z,100197.53
2022-08-05T12:57:26.427Z,100203.63
2022-08-05T13:02:00.179Z,100112.66
2022-08-05T13:04:54.345Z,100194.72
2022-08-05T13:08:08.706Z,100183.22
2022-08-05T13:12:02.375Z,100186.84
2022-08-05T13:15:06.250Z,100183.47
2022-08-05T13:18:41.887Z,100033.28
2022-08-05T13:22:13.897Z,100180.84
2022-08-05T13:25:51.629Z,100155.50
2022-08-05T13:29:13.016Z,100150.13
2022-08-05T13:32:51.541Z,100147.38
2022-08-05T13:36:12.903Z,100156.38
2022-08-05T13:40:16.617Z,100137.44
2022-08-05T13:48:08.611Z,100147.19
2022-08-05T13:51:41.564Z,100040.87
2022-08-05T13:55:01.050Z,100130.56
2022-08-05T13:58:11.131Z,100137.84
2022-08-05T14:01:21.279Z,100102.47
2022-08-05T14:04:51.752Z,100116.13
2022-08-05T14:08:11.252Z,100112.28
2022-08-05T14:11:34.238Z,100119.13
2022-08-05T14:16:04.693Z,100113.38
2022-08-05T14:18:45.593Z,100090.59
2022-08-05T14:22:09.337Z,100073.94
2022-08-05T14:25:22.156Z,100094.13
2022-08-05T14:28:55.884Z,100093.56
2022-08-05T14:32:14.963Z,100096.12
2022-08-05T14:35:20.736Z,100078.69
2022-08-05T14:38:34.067Z,100003.28
2022-08-05T14:41:42.887Z,100095.47
2022-08-05T14:45:03.630Z,100085.91
2022-08-05T14:48:11.502Z,100001.12
2022-08-05T14:51:34.412Z,100055.62
2022-08-05T14:54:56.646Z,99959.00
2022-08-05T14:58:14.004Z,100086.47
2022-08-05T15:01:49.060Z,100011.72
2022-08-05T15:04:50.836Z,100079.69
2022-08-05T15:08:08.536Z,100067.09
2022-08-05T15:11:17.776Z,100060.91
2022-08-05T15:14:51.989Z,100072.62
2022-08-05T15:17:57.499Z,100048.59
2022-08-05T15:21:13.704Z,99905.47
2022-08-05T15:27:57.679Z,100034.50
2022-08-05T15:30:59.439Z,100050.03
2022-08-05T15:38:47.291Z,100002.13
2022-08-05T15:41:57.908Z,100056.88
2022-08-05T15:45:15.743Z,100020.88
2022-08-05T15:48:19.094Z,100029.16
2022-08-05T15:52:04.462Z,100033.81
2022-08-05T15:58:29.438Z,100022.09
2022-08-05T16:05:36.262Z,100034.66
2022-08-05T16:08:53.575Z,100036.78
2022-08-05T16:12:28.214Z,100028.25
2022-08-05T16:34:54.538Z,100039.12
2022-08-05T16:50:11.817Z,100033.22
2022-08-05T16:57:22.366Z,100033.78
2022-08-05T17:00:43.701Z,100027.72
2022-08-05T17:04:48.110Z,100025.00
2022-08-05T17:07:54.611Z,100036.84
2022-08-05T17:10:59.911Z,99877.13
2022-08-05T17:14:46.072Z,100026.72
2022-08-05T17:17:52.876Z,100034.41
2022-08-05T17:20:56.799Z,99933.78
2022-08-05T17:28:09.958Z,100034.22
2022-08-05T17:31:24.802Z,99894.97
2022-08-05T17:34:58.277Z,100032.00
2022-08-05T17:38:26.434Z,100040.00
2022-08-05T17:42:20.388Z,100043.09
2022-08-05T17:44:56.008Z,100036.38
2022-08-05T17:47:59.029Z,100038.81
2022-08-05T17:51:09.399Z,100045.38
2022-08-05T17:58:16.719Z,100045.78
2022-08-05T18:01:24.276Z,100042.84
2022-08-05T18:05:13.739Z,100046.56
2022-08-05T18:08:33.976Z,99934.81
2022-08-05T18:11:35.689Z,100032.75
2022-08-05T18:22:54.389Z,100028.94
2022-08-05T18:25:57.474Z,100047.09
2022-08-05T18:29:01.057Z,100042.50
2022-08-05T18:32:05.244Z,100035.19
2022-08-05T18:35:11.538Z,99965.03
2022-08-05T18:38:19.322Z,99922.25
2022-08-05T18:41:54.250Z,100039.16
2022-08-05T18:45:00.127Z,99905.34
2022-08-05T18:48:02.164Z,100044.13
2022-08-05T18:52:06.809Z,100040.56
2022-08-05T18:54:50.532Z,100058.00
2022-08-05T18:58:03.226Z,100040.56
2022-08-05T19:01:05.871Z,100064.66
2022-08-05T19:05:01.097Z,100015.97
2022-08-05T19:08:13.589Z,100023.16
2022-08-05T19:11:37.106Z,100068.72
2022-08-05T19:15:56.905Z,100058.78
2022-08-05T19:18:56.736Z,100069.88
2022-08-05T19:21:59.253Z,100021.16
2022-08-05T19:25:00.857Z,99966.34
2022-08-05T19:28:04.562Z,100058.84
2022-08-05T19:31:22.891Z,100075.28
2022-08-05T19:34:54.533Z,100070.06
2022-08-05T19:38:06.828Z,100072.25
2022-08-05T19:41:13.575Z,100087.28
2022-08-05T19:44:57.659Z,99970.84
2022-08-05T19:48:03.737Z,100087.87
2022-08-05T19:51:07.810Z,100072.97
2022-08-05T19:54:49.768Z,100076.69
2022-08-05T19:58:14.643Z,100072.50
2022-08-05T20:07:59.202Z,100075.31
2022-08-05T20:11:01.386Z,100089.31
2022-08-05T20:14:49.647Z,99981.69
2022-08-05T20:17:56.030Z,100092.75
2022-08-05T20:21:00.647Z,100064.13
2022-08-05T20:24:59.175Z,100095.66
2022-08-05T20:28:01.137Z,100107.66
2022-08-05T20:31:22.896Z,99993.09
2022-08-05T20:35:02.468Z,100111.53
2022-08-05T20:38:22.728Z,100117.16
2022-08-05T20:41:44.176Z,100104.44
2022-08-05T20:44:46.840Z,100119.16
2022-08-05T20:48:08.446Z,100114.75
2022-08-05T20:51:27.804Z,100100.81
2022-08-05T20:55:55.269Z,99975.19
2022-08-05T20:58:10.635Z,100114.22
2022-08-05T21:01:17.448Z,100120.81
2022-08-05T21:08:42.483Z,100122.37
2022-08-05T21:12:07.703Z,100107.31
2022-08-05T21:15:10.974Z,100018.47
2022-08-05T21:18:12.826Z,100114.38
2022-08-05T21:21:15.553Z,100126.47
2022-08-05T21:24:52.802Z,100062.72
2022-08-05T21:27:54.394Z,100126.75
2022-08-05T21:30:57.547Z,100121.59
2022-08-05T21:35:08.185Z,100143.69
2022-08-05T21:38:09.738Z,100123.69
2022-08-05T21:41:12.012Z,99982.75
2022-08-05T21:44:50.147Z,100136.16
2022-08-05T21:47:56.525Z,100023.41
2022-08-05T21:50:59.406Z,100132.81
2022-08-05T21:54:46.291Z,100139.00
2022-08-05T21:57:55.654Z,100146.50
2022-08-05T22:00:57.559Z,100075.66
2022-08-05T22:04:46.086Z,100132.19
2022-08-05T22:07:59.242Z,100130.34
2022-08-05T22:11:06.731Z,99969.78
2022-08-05T22:14:42.978Z,100149.56
2022-08-05T22:17:59.798Z,100140.72
2022-08-05T22:21:04.007Z,100018.88
2022-08-05T22:24:52.181Z,100145.19
2022-08-05T22:28:08.794Z,100138.34
2022-08-05T22:31:13.228Z,100016.16
2022-08-05T22:34:47.229Z,100150.53
2022-08-05T22:37:58.659Z,100139.63
2022-08-05T22:41:01.426Z,100039.94
2022-08-05T22:44:48.356Z,100082.34
2022-08-05T22:47:57.544Z,100131.03
2022-08-05T22:50:59.318Z,100140.78
2022-08-05T22:54:48.828Z,99989.81
2022-08-05T22:57:53.823Z,100137.91
2022-08-05T23:00:59.657Z,100138.47
2022-08-05T23:07:55.709Z,100129.59
2022-08-05T23:10:57.213Z,100135.50
2022-08-05T23:14:47.353Z,100139.66
2022-08-05T23:18:00.710Z,100134.47
2022-08-05T23:21:06.857Z,100125.47
2022-08-05T23:28:00.583Z,100149.53
2022-08-05T23:31:17.251Z,100003.44
2022-08-05T23:35:01.443Z,100132.78
2022-08-05T23:38:04.797Z,100131.78
2022-08-05T23:41:13.813Z,100060.44
2022-08-05T23:47:59.566Z,100140.69
2022-08-05T23:51:06.147Z,100119.31
2022-08-05T23:54:47.579Z,100131.06
2022-08-05T23:57:51.379Z,100127.06
